Terminal Aerodrome Forecast
Issued by NWS Boston, MA

Home | Current Version | Previous Version | Text Only | Print | Product List | Glossary On
Versions: 1 2 3 4 5 6 7 8 9 10 11 12 13 14 15 16 17 18 19 20 21 22
000
FTUS41 KBOX 260531
TAFPVD
TAF
KPVD 260531Z 2606/2706 01008KT 3SM SHRA BR OVC004 WS020/12035KT
     FM261000 06006KT 2SM SHRA BR OVC003 WS020/15040KT
     FM261200 11009KT 3SM -SHRA BR OVC003
     FM261800 09005KT 4SM BR VCSH OVC010
     FM262200 09005KT 1 1/2SM -DZ BR OVC003=

USA.gov is the U.S. government's official web portal to all federal, state and local government web resources and services.